Time;durP1;ratioP1;P1;durP2;ratioP2;P2;SDS_P1;SDS_P2;PMS_P1;PMS_P2;Temp;Humidity;BMP_temperature;BMP_pressure;BME280_temperature;BME280_humidity;BME280_pressure;Samples;Min_cycle;Max_cycle;Signal;HPM_P1;HPM_P2
2022/10/22 00:00:57;;;;;;;2.77;2.07;;;13.80;99.90;;;;;;5078026;28;20452;-82
2022/10/22 00:03:24;;;;;;;4.23;1.73;;;13.80;99.90;;;;;;5076773;28;20473;-83
2022/10/22 00:05:50;;;;;;;3.10;2.20;;;13.80;99.90;;;;;;5077310;28;20451;-82
2022/10/22 00:08:17;;;;;;;3.40;2.03;;;13.80;99.90;;;;;;5080501;28;20449;-82
2022/10/22 00:10:44;;;;;;;4.33;2.00;;;13.80;99.90;;;;;;5077112;28;20452;-82
2022/10/22 00:13:11;;;;;;;10.40;2.40;;;13.80;99.90;;;;;;5077963;28;20477;-83
2022/10/22 00:15:39;;;;;;;3.60;2.20;;;13.80;99.90;;;;;;5078585;28;20458;-83
2022/10/22 00:18:06;;;;;;;4.37;2.27;;;13.80;99.90;;;;;;5082690;28;20450;-82
2022/10/22 00:20:33;;;;;;;4.73;2.40;;;13.80;99.90;;;;;;5076580;28;21048;-84
2022/10/22 00:23:00;;;;;;;5.00;2.10;;;13.80;99.90;;;;;;5077210;28;20481;-83
2022/10/22 00:25:27;;;;;;;8.23;2.63;;;13.80;99.90;;;;;;5077214;28;20445;-83
2022/10/22 00:27:53;;;;;;;7.83;3.23;;;13.80;99.90;;;;;;5076783;28;20455;-82
2022/10/22 00:30:20;;;;;;;6.10;3.87;;;13.80;99.90;;;;;;5077345;28;20439;-82
2022/10/22 00:32:48;;;;;;;6.67;3.10;;;13.80;99.90;;;;;;5077059;28;20459;-84
2022/10/22 00:35:15;;;;;;;5.53;3.40;;;13.80;99.90;;;;;;5077872;28;20466;-83
2022/10/22 00:37:42;;;;;;;5.40;3.67;;;13.80;99.90;;;;;;5076667;28;20453;-83
2022/10/22 00:40:10;;;;;;;4.70;3.47;;;13.80;99.90;;;;;;5077165;28;20481;-82
2022/10/22 00:42:37;;;;;;;6.23;3.90;;;13.80;99.90;;;;;;5076344;28;20990;-83
2022/10/22 00:45:16;;;;;;;5.70;3.20;;;13.80;99.90;;;;;;5076553;28;20463;-83
2022/10/22 00:47:48;;;;;;;7.63;4.60;;;13.80;99.90;;;;;;5077198;28;20456;-82
2022/10/22 00:50:19;;;;;;;5.80;3.70;;;13.80;99.90;;;;;;5076138;28;20977;-83
2022/10/22 00:52:47;;;;;;;5.10;3.67;;;13.80;99.90;;;;;;5077328;28;20596;-83
2022/10/22 00:55:15;;;;;;;5.20;3.33;;;13.80;99.90;;;;;;5076881;28;20458;-83
2022/10/22 00:57:42;;;;;;;9.20;2.73;;;13.80;99.90;;;;;;5077295;28;20481;-83
2022/10/22 01:00:10;;;;;;;3.60;2.40;;;13.80;99.90;;;;;;5076267;28;20490;-83
2022/10/22 01:02:37;;;;;;;5.80;3.10;;;13.80;99.90;;;;;;5075720;28;20473;-83
2022/10/22 01:05:04;;;;;;;7.87;2.90;;;13.80;99.90;;;;;;5076817;28;20477;-83
2022/10/22 01:07:40;;;;;;;3.60;2.60;;;13.80;99.90;;;;;;5076874;28;20470;-82
2022/10/22 01:10:13;;;;;;;3.10;2.30;;;13.80;99.90;;;;;;5076836;28;20453;-83
2022/10/22 01:12:49;;;;;;;5.27;2.93;;;13.80;99.90;;;;;;5077105;28;20471;-83
2022/10/22 01:15:24;;;;;;;3.23;2.60;;;13.80;99.90;;;;;;5076332;28;20983;-83
2022/10/22 01:17:58;;;;;;;7.00;3.40;;;13.80;99.90;;;;;;5075677;28;20489;-83
2022/10/22 01:20:47;;;;;;;2.83;2.10;;;13.80;99.90;;;;;;5075930;28;20486;-84
2022/10/22 01:23:35;;;;;;;3.83;2.50;;;13.80;99.90;;;;;;5076343;28;20478;-82
2022/10/22 01:26:10;;;;;;;4.77;2.40;;;13.70;99.90;;;;;;5077011;28;20443;-83
2022/10/22 01:28:54;;;;;;;6.83;2.40;;;13.80;99.90;;;;;;5076948;28;21073;-84
2022/10/22 01:31:22;;;;;;;7.70;2.63;;;13.70;99.90;;;;;;5056286;28;20469;-82
2022/10/22 01:33:51;;;;;;;3.27;2.10;;;13.70;99.90;;;;;;5056844;28;20458;-83
2022/10/22 01:36:19;;;;;;;5.03;2.50;;;13.70;99.90;;;;;;5055939;28;20562;-81
2022/10/22 01:38:47;;;;;;;5.10;2.27;;;13.70;99.90;;;;;;5062403;28;20438;-83
2022/10/22 01:41:14;;;;;;;3.07;2.00;;;13.70;99.90;;;;;;5097780;28;20482;-84
2022/10/22 01:43:41;;;;;;;2.40;1.80;;;13.70;99.90;;;;;;5097053;28;20498;-83
2022/10/22 01:46:13;;;;;;;3.03;2.43;;;13.70;99.90;;;;;;5075786;28;20454;-83
2022/10/22 01:48:55;;;;;;;4.20;1.97;;;13.70;99.90;;;;;;5075724;28;20528;-82
2022/10/22 01:51:36;;;;;;;4.63;2.20;;;13.70;99.90;;;;;;5075647;28;20458;-83
2022/10/22 01:54:09;;;;;;;3.40;2.10;;;13.70;99.90;;;;;;5076465;28;20481;-83
2022/10/22 01:56:54;;;;;;;3.30;2.50;;;13.70;99.90;;;;;;5075625;28;20453;-84
2022/10/22 01:59:31;;;;;;;3.73;2.10;;;13.70;99.90;;;;;;5074996;28;20478;-84
2022/10/22 02:02:07;;;;;;;2.47;2.23;;;13.70;99.90;;;;;;5075520;28;20484;-83
2022/10/22 02:04:41;;;;;;;4.70;2.10;;;13.70;99.90;;;;;;5075964;28;20456;-83
2022/10/22 02:07:11;;;;;;;5.07;2.37;;;13.70;99.90;;;;;;5075746;28;20461;-82
2022/10/22 02:09:40;;;;;;;2.90;1.90;;;13.70;99.90;;;;;;5074998;28;20457;-82
2022/10/22 02:12:08;;;;;;;4.23;2.13;;;13.70;99.90;;;;;;5075817;28;20470;-81
2022/10/22 02:14:39;;;;;;;3.57;2.67;;;13.70;99.90;;;;;;5075392;28;20461;-82
2022/10/22 02:17:13;;;;;;;3.90;2.37;;;13.70;99.90;;;;;;5075305;28;20540;-82
2022/10/22 02:19:44;;;;;;;4.90;2.17;;;13.70;99.90;;;;;;5075040;28;20489;-84
2022/10/22 02:22:11;;;;;;;4.80;2.50;;;13.70;99.90;;;;;;5074139;28;20474;-84
2022/10/22 02:24:38;;;;;;;4.13;1.83;;;13.70;99.90;;;;;;5074245;28;20458;-84
2022/10/22 02:27:12;;;;;;;3.07;2.20;;;13.70;99.90;;;;;;5074497;28;20470;-82
2022/10/22 02:29:43;;;;;;;3.50;1.80;;;13.70;99.90;;;;;;5073870;28;20445;-84
2022/10/22 02:32:16;;;;;;;6.17;2.23;;;13.70;99.90;;;;;;5074393;28;20481;-84
2022/10/22 02:34:44;;;;;;;6.17;1.83;;;13.70;99.90;;;;;;5074054;28;20453;-82
2022/10/22 02:37:12;;;;;;;3.27;2.33;;;13.60;99.90;;;;;;5074713;28;20473;-83
2022/10/22 02:39:39;;;;;;;3.60;1.97;;;13.60;99.90;;;;;;5073741;28;20497;-83
2022/10/22 02:42:06;;;;;;;3.00;2.00;;;13.60;99.90;;;;;;5073947;28;20481;-83
2022/10/22 02:44:33;;;;;;;4.07;2.20;;;13.60;99.90;;;;;;5074359;28;20452;-83
2022/10/22 02:47:00;;;;;;;2.80;2.10;;;13.60;99.90;;;;;;5074566;28;20461;-84
2022/10/22 02:49:28;;;;;;;3.00;1.93;;;13.60;99.90;;;;;;5073514;28;20455;-83
2022/10/22 02:51:55;;;;;;;2.93;2.03;;;13.60;99.90;;;;;;5074185;28;20482;-82
2022/10/22 02:54:22;;;;;;;3.83;2.57;;;13.60;99.90;;;;;;5074491;28;20446;-82
2022/10/22 02:56:49;;;;;;;2.30;1.90;;;13.60;99.90;;;;;;5074097;28;20466;-83
2022/10/22 02:59:15;;;;;;;4.13;2.17;;;13.60;99.90;;;;;;5074023;28;20448;-83
2022/10/22 03:01:42;;;;;;;4.60;2.87;;;13.60;99.90;;;;;;5074176;28;20491;-82
2022/10/22 03:04:09;;;;;;;3.20;2.03;;;13.50;99.90;;;;;;5074280;28;20457;-82
2022/10/22 03:06:37;;;;;;;3.80;2.20;;;13.50;99.90;;;;;;5073611;28;20460;-83
2022/10/22 03:09:04;;;;;;;4.13;1.80;;;13.50;99.90;;;;;;5074215;28;20454;-83
2022/10/22 03:11:31;;;;;;;3.80;2.10;;;13.50;99.90;;;;;;5074118;28;20852;-83
2022/10/22 03:13:57;;;;;;;7.30;2.27;;;13.50;99.90;;;;;;5074174;28;20832;-83
2022/10/22 03:16:24;;;;;;;3.80;2.10;;;13.50;99.90;;;;;;5073593;28;20481;-84
2022/10/22 03:18:51;;;;;;;6.80;2.70;;;13.50;99.90;;;;;;5074090;28;20455;-83
2022/10/22 03:21:25;;;;;;;3.80;1.80;;;13.50;99.90;;;;;;5073569;28;20486;-84
2022/10/22 03:23:54;;;;;;;4.13;2.30;;;13.50;99.90;;;;;;5074281;28;20480;-83
2022/10/22 03:26:21;;;;;;;3.90;2.27;;;13.50;99.90;;;;;;5075820;28;20458;-84
2022/10/22 03:28:48;;;;;;;2.57;1.87;;;13.40;99.90;;;;;;5077954;28;20453;-84
2022/10/22 03:31:15;;;;;;;3.30;2.53;;;13.40;99.90;;;;;;5077727;28;20450;-84
2022/10/22 03:33:42;;;;;;;3.93;2.30;;;13.40;99.90;;;;;;5077502;28;20541;-82
2022/10/22 03:36:09;;;;;;;5.40;2.40;;;13.30;99.90;;;;;;5077627;28;20459;-83
2022/10/22 03:38:39;;;;;;;4.77;2.10;;;13.30;99.90;;;;;;5076859;28;20480;-83
2022/10/22 03:41:07;;;;;;;4.87;2.20;;;13.30;99.90;;;;;;5077488;28;20477;-82
2022/10/22 03:43:36;;;;;;;4.10;2.27;;;13.30;99.90;;;;;;5077497;28;20490;-83
2022/10/22 03:46:03;;;;;;;4.93;2.30;;;13.20;99.90;;;;;;5078484;28;20450;-84
2022/10/22 03:48:30;;;;;;;7.60;2.30;;;13.20;99.90;;;;;;5076971;28;20833;-83
2022/10/22 03:50:56;;;;;;;3.87;2.23;;;13.20;99.90;;;;;;5077574;28;20443;-83
2022/10/22 03:53:23;;;;;;;3.20;2.20;;;13.20;99.90;;;;;;5077334;28;20478;-82
2022/10/22 03:55:50;;;;;;;2.60;1.70;;;13.10;99.90;;;;;;5076824;28;20453;-82
2022/10/22 03:58:18;;;;;;;2.30;1.80;;;13.20;99.90;;;;;;5076642;28;20452;-82
2022/10/22 04:00:45;;;;;;;5.70;2.17;;;13.10;99.90;;;;;;5076922;28;20516;-82
2022/10/22 04:03:12;;;;;;;3.60;2.70;;;13.10;99.90;;;;;;5077371;28;20467;-84
2022/10/22 04:05:39;;;;;;;2.80;2.23;;;13.10;99.90;;;;;;5077172;28;20467;-83
2022/10/22 04:08:05;;;;;;;3.10;2.10;;;13.10;99.90;;;;;;5076363;28;20455;-82
2022/10/22 04:10:32;;;;;;;3.13;2.20;;;13.10;99.90;;;;;;5076757;28;20445;-82
2022/10/22 04:12:59;;;;;;;4.27;2.83;;;13.10;99.90;;;;;;5077161;28;20471;-82
2022/10/22 04:15:27;;;;;;;3.03;2.60;;;13.10;99.90;;;;;;5077006;28;20451;-83
2022/10/22 04:17:55;;;;;;;6.20;2.30;;;13.10;99.90;;;;;;5076111;28;20565;-82
2022/10/22 04:20:21;;;;;;;3.10;2.10;;;13.10;99.90;;;;;;5077454;28;20482;-82
2022/10/22 04:22:48;;;;;;;6.47;2.63;;;13.10;99.90;;;;;;5076396;28;20474;-82
2022/10/22 04:25:15;;;;;;;8.07;2.83;;;13.10;99.90;;;;;;5076854;28;20456;-82
2022/10/22 04:27:42;;;;;;;4.30;2.70;;;13.10;99.90;;;;;;5076391;28;20463;-82
2022/10/22 04:30:09;;;;;;;3.40;2.17;;;13.10;99.90;;;;;;5076278;28;20441;-82
2022/10/22 04:32:38;;;;;;;4.53;2.60;;;13.10;99.90;;;;;;5076303;28;20469;-82
2022/10/22 04:35:05;;;;;;;4.00;2.60;;;13.10;99.90;;;;;;5076677;28;20457;-82
2022/10/22 04:37:32;;;;;;;3.10;2.30;;;13.10;99.90;;;;;;5076047;28;20469;-82
2022/10/22 04:39:59;;;;;;;8.87;2.80;;;13.10;99.90;;;;;;5075780;28;20466;-82
2022/10/22 04:42:26;;;;;;;4.20;2.80;;;13.10;99.90;;;;;;5075992;28;20592;-83
2022/10/22 04:44:53;;;;;;;4.83;2.97;;;13.10;99.90;;;;;;5075938;28;20455;-82
2022/10/22 04:47:20;;;;;;;4.53;2.60;;;13.10;99.90;;;;;;5075995;28;20462;-82
2022/10/22 04:49:48;;;;;;;6.03;2.73;;;13.10;99.90;;;;;;5075715;28;20463;-82
2022/10/22 04:52:15;;;;;;;4.23;2.60;;;13.10;99.90;;;;;;5076200;28;21026;-82
2022/10/22 04:54:41;;;;;;;3.50;2.50;;;13.10;99.90;;;;;;5074988;28;20484;-81
2022/10/22 04:57:08;;;;;;;5.30;2.47;;;13.10;99.90;;;;;;5069861;28;20466;-82
2022/10/22 04:59:35;;;;;;;8.93;2.97;;;13.10;99.90;;;;;;5056024;28;20462;-83
2022/10/22 05:02:02;;;;;;;4.07;2.70;;;13.10;99.90;;;;;;5056473;28;20490;-83
2022/10/22 05:04:28;;;;;;;4.13;2.53;;;13.10;99.90;;;;;;5074684;28;20455;-82
2022/10/22 05:06:56;;;;;;;5.73;3.40;;;13.10;99.90;;;;;;5074390;28;20531;-82
2022/10/22 05:09:23;;;;;;;4.03;2.77;;;13.10;99.90;;;;;;5074389;28;20469;-82
2022/10/22 05:11:51;;;;;;;3.80;2.37;;;13.10;99.90;;;;;;5074557;28;20481;-81
2022/10/22 05:14:20;;;;;;;3.50;2.60;;;13.10;99.90;;;;;;5074572;28;20449;-82
2022/10/22 05:16:47;;;;;;;4.10;2.87;;;13.10;99.90;;;;;;5074177;28;20458;-82
2022/10/22 05:19:17;;;;;;;5.30;3.17;;;13.10;99.90;;;;;;5074324;28;20460;-82
2022/10/22 05:21:44;;;;;;;2.70;2.47;;;13.10;99.90;;;;;;5074649;28;20555;-82
2022/10/22 05:24:13;;;;;;;4.97;3.23;;;13.10;99.90;;;;;;5074460;28;20950;-82
2022/10/22 05:26:40;;;;;;;3.60;3.10;;;13.10;99.90;;;;;;5074011;28;20455;-82
2022/10/22 05:29:07;;;;;;;3.57;2.40;;;13.10;99.90;;;;;;5073629;28;20458;-81
2022/10/22 05:31:34;;;;;;;3.73;2.90;;;13.10;99.90;;;;;;5074395;28;20477;-81
2022/10/22 05:34:00;;;;;;;3.63;2.33;;;13.10;99.90;;;;;;5073636;28;20454;-81
2022/10/22 05:36:27;;;;;;;4.97;2.60;;;13.10;99.90;;;;;;5073822;28;20461;-82
2022/10/22 05:38:54;;;;;;;3.03;2.43;;;13.10;99.90;;;;;;5072960;28;20454;-79
2022/10/22 05:41:24;;;;;;;4.10;2.70;;;13.10;99.90;;;;;;5073935;28;20490;-82
2022/10/22 05:43:51;;;;;;;5.53;3.60;;;13.10;99.90;;;;;;5074310;28;20441;-81
2022/10/22 05:46:20;;;;;;;5.13;2.97;;;13.10;99.90;;;;;;5074577;28;20463;-81
2022/10/22 05:48:49;;;;;;;6.23;2.60;;;13.10;99.90;;;;;;5072827;28;20459;-82
2022/10/22 05:51:16;;;;;;;6.60;2.97;;;13.10;99.90;;;;;;5073721;28;20441;-85
2022/10/22 05:53:43;;;;;;;3.30;2.80;;;13.00;99.90;;;;;;5074230;28;20554;-84
2022/10/22 05:56:13;;;;;;;6.80;2.97;;;13.00;99.90;;;;;;5076727;28;20830;-85
2022/10/22 05:58:42;;;;;;;6.10;3.33;;;13.00;99.90;;;;;;5056876;28;20453;-84
2022/10/22 06:01:12;;;;;;;3.97;2.67;;;13.10;99.90;;;;;;5073685;28;20488;-84
2022/10/22 06:03:39;;;;;;;4.00;3.30;;;13.10;99.90;;;;;;5084102;28;20845;-84
2022/10/22 06:06:17;;;;;;;6.90;3.13;;;13.00;99.90;;;;;;5074573;28;20463;-84
2022/10/22 06:08:44;;;;;;;3.33;2.80;;;13.10;99.90;;;;;;5073942;28;20441;-84
2022/10/22 06:11:11;;;;;;;4.53;2.80;;;13.10;99.90;;;;;;5074402;28;20452;-83
2022/10/22 06:13:52;;;;;;;4.60;2.90;;;13.10;99.90;;;;;;5101013;22;20512;-84
2022/10/22 06:16:39;;;;;;;4.90;2.70;;;13.10;99.90;;;;;;5092770;28;20492;-84
2022/10/22 06:19:14;;;;;;;4.70;2.90;;;13.10;99.90;;;;;;5073610;28;21033;-83
2022/10/22 06:21:43;;;;;;;3.60;2.63;;;13.10;99.90;;;;;;5076062;28;20561;-83
2022/10/22 06:24:15;;;;;;;4.40;3.30;;;13.10;99.90;;;;;;5079439;28;20548;-85
2022/10/22 06:26:44;;;;;;;5.80;3.20;;;13.10;99.90;;;;;;5083273;28;20437;-85
2022/10/22 06:29:33;;;;;;;3.73;2.60;;;13.10;99.90;;;;;;5097754;28;20455;-83
2022/10/22 06:32:05;;;;;;;4.37;3.10;;;13.10;99.90;;;;;;5089826;28;20479;-85
2022/10/22 06:34:37;;;;;;;6.17;3.63;;;13.00;99.90;;;;;;5099776;28;20442;-83
2022/10/22 06:37:08;;;;;;;4.40;3.27;;;13.10;99.90;;;;;;5108093;28;20461;-83
2022/10/22 06:39:37;;;;;;;5.13;3.33;;;13.10;99.90;;;;;;5105261;28;20479;-84
2022/10/22 06:42:07;;;;;;;7.67;3.80;;;13.10;99.90;;;;;;5093218;28;20512;-83
2022/10/22 06:44:56;;;;;;;6.27;3.60;;;13.10;99.90;;;;;;5093428;28;20445;-83
2022/10/22 06:47:32;;;;;;;5.80;4.07;;;13.10;99.90;;;;;;5094519;28;20578;-83
2022/10/22 06:50:07;;;;;;;4.23;3.40;;;13.20;99.90;;;;;;5092167;28;20466;-83
2022/10/22 06:52:38;;;;;;;8.50;4.27;;;13.20;99.90;;;;;;5093660;28;20531;-83
2022/10/22 06:55:14;;;;;;;7.93;4.10;;;13.30;99.90;;;;;;5094284;28;20464;-82
2022/10/22 07:00:28;;;;;;;8.30;4.10;;;13.40;99.90;;;;;;5091714;28;20448;-83
2022/10/22 07:03:00;;;;;;;7.00;4.20;;;13.50;99.90;;;;;;5097763;28;20524;-83
2022/10/22 07:05:33;;;;;;;7.80;4.13;;;13.70;99.90;;;;;;5098374;28;20461;-84
2022/10/22 07:08:08;;;;;;;5.53;4.60;;;13.80;99.90;;;;;;5096842;28;20516;-84
2022/10/22 07:10:34;;;;;;;10.17;5.57;;;13.90;99.90;;;;;;5095828;28;20451;-85
2022/10/22 07:13:01;;;;;;;5.73;4.30;;;14.10;99.90;;;;;;5097262;28;20487;-85
2022/10/22 07:15:29;;;;;;;7.20;4.47;;;14.20;99.90;;;;;;5096738;28;20453;-85
2022/10/22 07:17:56;;;;;;;10.97;4.87;;;14.20;99.90;;;;;;5096794;28;20452;-84
2022/10/22 07:20:23;;;;;;;6.70;5.37;;;14.30;99.90;;;;;;5097224;28;20458;-85
2022/10/22 07:22:50;;;;;;;7.50;4.57;;;14.30;99.90;;;;;;5097420;28;20499;-84
2022/10/22 07:25:17;;;;;;;5.80;3.87;;;14.30;99.90;;;;;;5097147;28;20460;-84
2022/10/22 07:27:43;;;;;;;8.37;4.10;;;14.40;99.90;;;;;;5097533;28;20448;-85
2022/10/22 07:30:11;;;;;;;6.97;3.93;;;14.40;99.90;;;;;;5090355;28;20544;-85
2022/10/22 07:32:39;;;;;;;9.73;3.90;;;14.40;99.90;;;;;;5096068;28;20840;-84
2022/10/22 07:35:07;;;;;;;6.30;3.73;;;14.50;99.90;;;;;;5097631;28;20450;-85
2022/10/22 07:37:33;;;;;;;7.07;3.20;;;14.50;99.90;;;;;;5096817;28;20835;-87
2022/10/22 07:40:00;;;;;;;5.80;3.53;;;14.60;99.90;;;;;;5095806;28;20944;-86
2022/10/22 07:42:27;;;;;;;6.60;3.73;;;14.70;99.90;;;;;;5095574;28;20490;-85
2022/10/22 07:44:54;;;;;;;8.20;3.53;;;14.70;99.90;;;;;;5096418;28;20449;-85
2022/10/22 07:47:21;;;;;;;8.33;4.07;;;14.80;99.90;;;;;;5096444;28;20554;-85
2022/10/22 07:49:49;;;;;;;5.60;3.00;;;14.90;99.90;;;;;;5093140;28;20455;-84
2022/10/22 07:52:15;;;;;;;6.10;3.90;;;15.00;99.90;;;;;;5099932;28;20484;-86
2022/10/22 07:54:42;;;;;;;6.13;3.53;;;15.10;99.90;;;;;;5101514;28;20445;-85
2022/10/22 07:57:09;;;;;;;8.50;3.33;;;15.10;99.90;;;;;;5119842;28;20487;-86
2022/10/22 07:59:36;;;;;;;8.73;3.30;;;15.20;99.90;;;;;;5118795;28;20456;-87
2022/10/22 08:02:03;;;;;;;8.23;3.07;;;15.30;99.90;;;;;;5111868;28;20493;-87
2022/10/22 08:04:30;;;;;;;5.43;2.67;;;15.40;99.90;;;;;;5105315;28;20544;-86
2022/10/22 08:06:58;;;;;;;7.63;3.30;;;15.50;99.90;;;;;;5103889;28;20458;-86
2022/10/22 08:09:24;;;;;;;8.60;3.27;;;15.50;99.90;;;;;;5110172;28;20451;-87
2022/10/22 08:11:51;;;;;;;3.90;2.70;;;15.60;99.90;;;;;;5099556;28;20475;-86
2022/10/22 08:14:18;;;;;;;5.07;2.90;;;15.50;99.90;;;;;;5100039;28;20842;-86
2022/10/22 08:16:45;;;;;;;5.17;2.60;;;15.50;99.90;;;;;;5098214;28;20458;-86
2022/10/22 08:19:17;;;;;;;7.27;3.30;;;15.50;99.90;;;;;;5097619;28;20476;-86
2022/10/22 08:21:44;;;;;;;4.27;2.67;;;15.50;99.90;;;;;;5099235;28;20497;-85
2022/10/22 08:24:12;;;;;;;8.57;3.03;;;15.70;99.90;;;;;;5098266;28;20454;-86
2022/10/22 08:26:40;;;;;;;5.63;2.60;;;15.70;99.90;;;;;;5098576;28;20458;-85
2022/10/22 08:29:27;;;;;;;5.60;2.57;;;15.80;99.90;;;;;;5099054;28;21570;-85
2022/10/22 08:31:54;;;;;;;5.83;2.50;;;16.00;99.90;;;;;;5098306;28;20547;-85
2022/10/22 08:34:21;;;;;;;5.70;2.43;;;16.00;99.90;;;;;;5098513;28;20467;-85
2022/10/22 08:36:48;;;;;;;3.63;2.07;;;16.10;99.90;;;;;;5104345;28;20453;-87
2022/10/22 08:39:16;;;;;;;10.70;2.97;;;16.20;99.90;;;;;;5096437;28;20499;-85
2022/10/22 08:41:52;;;;;;;7.17;1.90;;;16.30;99.90;;;;;;5096993;28;20493;-85
2022/10/22 08:44:43;;;;;;;6.47;2.50;;;16.20;99.90;;;;;;5094995;28;20493;-87
2022/10/22 08:47:24;;;;;;;9.00;2.27;;;16.20;99.90;;;;;;5088481;28;20516;-87
2022/10/22 08:49:55;;;;;;;9.77;2.20;;;16.20;99.90;;;;;;5096191;28;20965;-87
2022/10/22 08:52:22;;;;;;;7.93;2.60;;;16.10;99.90;;;;;;5095970;28;21123;-83
2022/10/22 08:54:53;;;;;;;11.00;2.13;;;16.10;99.90;;;;;;5097678;28;20460;-86
2022/10/22 08:57:43;;;;;;;15.03;2.50;;;16.00;99.90;;;;;;5091583;28;20455;-86
2022/10/22 09:00:15;;;;;;;4.57;1.87;;;16.00;99.90;;;;;;5092333;28;20452;-85
2022/10/22 09:02:57;;;;;;;7.53;1.93;;;16.00;99.90;;;;;;5105261;28;20499;-85
2022/10/22 09:05:34;;;;;;;5.90;2.10;;;16.00;99.90;;;;;;5096574;28;20447;-86
2022/10/22 09:08:01;;;;;;;8.00;2.23;;;16.00;99.90;;;;;;5088605;28;20470;-85
2022/10/22 09:10:35;;;;;;;4.67;2.13;;;16.00;99.90;;;;;;5099657;28;20449;-82
2022/10/22 09:13:02;;;;;;;6.47;2.10;;;16.00;99.90;;;;;;5094562;28;20512;-85
2022/10/22 09:15:30;;;;;;;6.40;2.17;;;16.00;99.90;;;;;;5095687;28;20453;-85
2022/10/22 09:18:10;;;;;;;6.00;2.40;;;16.10;99.90;;;;;;5095081;28;20447;-85
2022/10/22 09:20:44;;;;;;;6.70;2.50;;;16.20;99.90;;;;;;5095214;28;20453;-86
2022/10/22 09:23:24;;;;;;;6.93;2.50;;;16.30;99.90;;;;;;5094915;28;20484;-85
2022/10/22 09:25:54;;;;;;;6.90;2.30;;;16.30;99.90;;;;;;5095630;28;20449;-85
2022/10/22 09:28:21;;;;;;;7.27;1.90;;;16.30;99.90;;;;;;5095463;28;20508;-86
2022/10/22 09:30:47;;;;;;;4.23;1.93;;;16.40;99.90;;;;;;5095229;28;20450;-85
2022/10/22 09:33:23;;;;;;;4.77;1.83;;;16.40;99.90;;;;;;5096563;28;20467;-85
2022/10/22 09:35:53;;;;;;;10.70;2.70;;;16.40;99.90;;;;;;5094451;28;20466;-84
2022/10/22 09:38:23;;;;;;;7.17;1.60;;;16.40;99.90;;;;;;5096394;28;20460;-84
2022/10/22 09:40:54;;;;;;;7.70;2.60;;;16.50;99.90;;;;;;5116976;28;20448;-85
2022/10/22 09:43:21;;;;;;;6.70;2.00;;;16.60;99.90;;;;;;5102861;28;20496;-84
2022/10/22 09:45:55;;;;;;;6.50;1.93;;;16.80;99.90;;;;;;5097597;28;20456;-85
2022/10/22 09:48:29;;;;;;;4.73;2.10;;;16.80;99.90;;;;;;5101537;28;20454;-85
2022/10/22 09:51:00;;;;;;;7.40;1.80;;;17.00;99.90;;;;;;5105397;28;20475;-85
2022/10/22 09:53:29;;;;;;;8.20;2.13;;;17.00;99.90;;;;;;5106688;28;20816;-85
2022/10/22 09:55:59;;;;;;;4.20;1.67;;;17.00;99.90;;;;;;5099072;28;20463;-85
2022/10/22 09:58:27;;;;;;;3.00;1.37;;;17.00;99.90;;;;;;5096424;28;20456;-85
2022/10/22 10:00:56;;;;;;;5.90;1.80;;;16.90;99.90;;;;;;5097545;28;20522;-84
2022/10/22 10:03:26;;;;;;;8.07;1.93;;;17.00;99.90;;;;;;5097130;28;21001;-86
2022/10/22 10:05:55;;;;;;;8.00;2.13;;;17.00;99.90;;;;;;5100178;28;20448;-85
2022/10/22 10:08:22;;;;;;;5.77;1.90;;;16.90;99.90;;;;;;5099044;28;20464;-85
2022/10/22 10:10:53;;;;;;;3.43;1.70;;;16.80;99.90;;;;;;5093922;28;20453;-85
2022/10/22 10:13:38;;;;;;;8.90;2.83;;;16.70;99.90;;;;;;5107574;28;22334;-84
2022/10/22 10:16:12;;;;;;;4.87;2.20;;;16.70;99.90;;;;;;5101951;28;20465;-85
2022/10/22 10:18:50;;;;;;;7.93;1.90;;;16.70;99.90;;;;;;5097106;28;20510;-85
2022/10/22 10:21:26;;;;;;;9.17;2.00;;;16.70;99.90;;;;;;5096258;28;20446;-86
2022/10/22 10:23:59;;;;;;;8.83;3.03;;;16.80;99.90;;;;;;5096327;28;20485;-86
2022/10/22 10:26:34;;;;;;;10.50;3.40;;;16.60;99.90;;;;;;5101251;28;20445;-87
2022/10/22 10:29:13;;;;;;;4.77;1.80;;;16.50;99.90;;;;;;5100122;28;20534;-86
2022/10/22 10:31:49;;;;;;;5.77;1.43;;;16.60;99.90;;;;;;5093951;28;20560;-86
2022/10/22 10:34:27;;;;;;;4.33;1.87;;;16.60;99.90;;;;;;5103643;28;20834;-85
2022/10/22 10:37:02;;;;;;;5.10;2.00;;;16.60;99.90;;;;;;5098726;28;20494;-86
2022/10/22 10:39:39;;;;;;;4.20;1.50;;;16.60;99.90;;;;;;5095843;28;20530;-85
2022/10/22 10:42:17;;;;;;;5.23;1.70;;;16.60;99.90;;;;;;5096890;28;20486;-84
2022/10/22 10:45:06;;;;;;;9.10;1.60;;;16.70;99.90;;;;;;5096988;28;20470;-85
2022/10/22 10:48:01;;;;;;;3.33;1.60;;;16.70;99.90;;;;;;5096237;28;20468;-85
2022/10/22 10:50:33;;;;;;;5.47;1.40;;;16.80;99.90;;;;;;5095577;28;20446;-85
2022/10/22 10:53:10;;;;;;;4.30;1.57;;;16.70;99.90;;;;;;5099670;28;20539;-84
2022/10/22 10:55:46;;;;;;;3.53;1.47;;;16.80;99.90;;;;;;5110962;28;20446;-85
2022/10/22 10:58:20;;;;;;;5.20;1.67;;;16.80;99.90;;;;;;5111610;28;20432;-84
2022/10/22 11:00:56;;;;;;;4.00;1.83;;;16.90;99.90;;;;;;5096431;28;20446;-84
2022/10/22 11:03:40;;;;;;;4.87;2.40;;;16.90;99.90;;;;;;5124089;22;20514;-85
2022/10/22 11:06:10;;;;;;;4.43;1.47;;;17.00;99.90;;;;;;5065384;28;20471;-84
2022/10/22 11:08:44;;;;;;;5.03;1.60;;;17.10;99.90;;;;;;5078553;28;20540;-86
2022/10/22 11:11:16;;;;;;;4.97;1.77;;;17.40;99.90;;;;;;5074258;28;20477;-85
2022/10/22 11:13:49;;;;;;;7.90;1.73;;;17.50;99.90;;;;;;5072142;28;20537;-84
2022/10/22 11:16:23;;;;;;;4.37;1.73;;;17.60;99.90;;;;;;5064039;28;20847;-86
2022/10/22 11:18:56;;;;;;;6.13;2.10;;;17.60;99.90;;;;;;5049930;28;20448;-85
2022/10/22 11:21:27;;;;;;;4.50;1.80;;;17.60;99.90;;;;;;5056298;28;20944;-83
2022/10/22 11:24:01;;;;;;;4.17;1.70;;;17.70;99.90;;;;;;5068793;28;20486;-85
2022/10/22 11:26:37;;;;;;;4.73;1.70;;;17.60;99.90;;;;;;5070631;28;20451;-83
2022/10/22 11:29:07;;;;;;;6.77;2.10;;;17.70;99.90;;;;;;5052092;28;20467;-87
2022/10/22 11:31:36;;;;;;;8.00;1.90;;;17.70;99.90;;;;;;5053587;28;20461;-85
2022/10/22 11:34:10;;;;;;;5.53;1.73;;;17.60;99.90;;;;;;5058443;28;20762;-83
2022/10/22 11:36:38;;;;;;;3.20;1.30;;;17.70;99.90;;;;;;5055516;28;20503;-85
2022/10/22 11:39:05;;;;;;;5.30;2.10;;;17.70;99.90;;;;;;5053954;28;20440;-85
2022/10/22 11:41:34;;;;;;;6.97;2.13;;;17.60;99.90;;;;;;5053651;28;20455;-85
2022/10/22 11:44:10;;;;;;;7.13;1.77;;;17.60;99.90;;;;;;5054744;28;20490;-85
2022/10/22 11:46:45;;;;;;;6.03;2.13;;;17.50;99.90;;;;;;5057563;28;20452;-84
2022/10/22 11:49:23;;;;;;;5.07;1.57;;;17.50;99.90;;;;;;5067733;28;20457;-85
2022/10/22 11:51:50;;;;;;;5.37;2.00;;;17.60;99.90;;;;;;5061148;28;20467;-85
2022/10/22 11:54:30;;;;;;;4.50;1.70;;;17.60;99.90;;;;;;5066854;28;20444;-83
2022/10/22 11:57:16;;;;;;;2.53;1.33;;;17.70;99.90;;;;;;5059797;28;20457;-85
2022/10/22 11:59:49;;;;;;;4.13;1.23;;;17.70;99.90;;;;;;5060761;28;20453;-84
2022/10/22 12:02:41;;;;;;;4.47;1.30;;;17.80;99.90;;;;;;5071212;28;20476;-86
2022/10/22 12:05:42;;;;;;;3.80;1.50;;;17.70;99.90;;;;;;5056321;28;21363;-85
2022/10/22 12:08:36;;;;;;;4.40;1.40;;;17.90;99.90;;;;;;5056056;28;20474;-82
2022/10/22 12:11:15;;;;;;;3.73;1.20;;;17.80;99.90;;;;;;5058609;28;20479;-83
2022/10/22 12:14:12;;;;;;;7.77;2.00;;;17.60;99.90;;;;;;5055417;28;20472;-82
2022/10/22 12:16:40;;;;;;;2.07;1.10;;;17.50;99.90;;;;;;5056979;28;20454;-85
2022/10/22 12:19:14;;;;;;;3.73;1.13;;;17.50;99.90;;;;;;5062959;28;20450;-84
2022/10/22 12:21:44;;;;;;;8.33;1.37;;;17.50;99.90;;;;;;5067148;28;20470;-85
2022/10/22 12:24:15;;;;;;;4.20;1.30;;;17.50;99.90;;;;;;5057766;28;20587;-84
2022/10/22 12:26:42;;;;;;;3.90;1.30;;;17.50;99.90;;;;;;5057480;28;20448;-85
2022/10/22 12:29:12;;;;;;;5.10;1.07;;;17.40;99.90;;;;;;5058288;28;20452;-85
2022/10/22 12:31:40;;;;;;;4.00;1.30;;;17.40;99.90;;;;;;5058751;28;20460;-83
2022/10/22 12:34:12;;;;;;;6.90;1.47;;;17.40;99.90;;;;;;5058140;28;20451;-90
2022/10/22 12:36:39;;;;;;;3.60;1.13;;;17.30;99.90;;;;;;5057837;28;20530;-86
2022/10/22 12:39:12;;;;;;;4.77;1.20;;;17.30;99.90;;;;;;5056702;28;20467;-85
2022/10/22 12:41:40;;;;;;;2.87;1.07;;;17.40;99.90;;;;;;5057650;28;20546;-85
2022/10/22 12:44:07;;;;;;;3.60;1.10;;;17.40;99.90;;;;;;5057813;28;20488;-83
2022/10/22 12:46:35;;;;;;;3.80;1.23;;;17.40;99.90;;;;;;5059189;28;20547;-85
2022/10/22 12:49:05;;;;;;;6.10;1.60;;;17.50;99.90;;;;;;5056569;28;20535;-85
2022/10/22 12:51:33;;;;;;;6.80;1.30;;;17.60;99.90;;;;;;5057135;28;20460;-87
2022/10/22 12:54:04;;;;;;;5.73;2.07;;;17.60;99.90;;;;;;5058357;28;20449;-86
2022/10/22 12:56:34;;;;;;;9.10;1.03;;;17.50;99.90;;;;;;5058256;28;20466;-85
2022/10/22 12:59:06;;;;;;;3.20;0.90;;;17.50;99.90;;;;;;5055661;28;20448;-85
2022/10/22 13:01:36;;;;;;;6.30;1.20;;;17.50;99.90;;;;;;5058621;28;20456;-85
2022/10/22 13:04:35;;;;;;;3.97;1.40;;;17.60;99.90;;;;;;5056383;28;20476;-84
2022/10/22 13:07:17;;;;;;;3.27;1.17;;;17.60;99.90;;;;;;5057243;28;20459;-85